createdAt,value
2023-07-08T00:04:01.616Z,101536.91
2023-07-08T00:09:13.949Z,101535.33
2023-07-08T00:14:21.728Z,101534.27
2023-07-08T00:19:29.446Z,101533.91
2023-07-08T00:24:37.168Z,101537.83
2023-07-08T00:29:45.372Z,101537.39
2023-07-08T00:34:53.115Z,101536.23
2023-07-08T00:40:00.852Z,101533.42
2023-07-08T00:45:33.056Z,101526.59
2023-07-08T00:50:41.132Z,101526.03
2023-07-08T00:55:49.200Z,101518.27
2023-07-08T01:01:00.646Z,101526.59
2023-07-08T01:06:08.706Z,101519.88
2023-07-08T01:11:16.838Z,101517.99
2023-07-08T01:16:25.476Z,101516.05
2023-07-08T01:21:36.241Z,101516.48
2023-07-08T01:26:47.867Z,101511.84
2023-07-08T01:31:58.401Z,101509.46
2023-07-08T01:37:08.790Z,101509.29
2023-07-08T01:42:17.833Z,101503.66
2023-07-08T01:47:26.438Z,101502.13
2023-07-08T01:52:34.538Z,101497.80
2023-07-08T01:57:42.516Z,101495.97
2023-07-08T02:02:50.770Z,101498.64
2023-07-08T02:07:59.491Z,101496.73
2023-07-08T02:13:07.995Z,101501.55
2023-07-08T02:18:16.444Z,101507.31
2023-07-08T02:23:24.507Z,101507.65
2023-07-08T02:28:32.249Z,101505.89
2023-07-08T02:33:40.041Z,101512.60
2023-07-08T02:38:47.796Z,101512.20
2023-07-08T02:43:55.829Z,101509.80
2023-07-08T02:49:03.919Z,101506.31
2023-07-08T02:54:11.710Z,101503.02
2023-07-08T02:59:19.456Z,101504.42
2023-07-08T03:04:27.387Z,101500.95
2023-07-08T03:09:35.765Z,101497.73
2023-07-08T03:14:43.881Z,101498.46
2023-07-08T03:19:52.141Z,101503.37
2023-07-08T03:25:00.137Z,101500.73
2023-07-08T03:30:10.456Z,101505.27
2023-07-08T03:35:18.796Z,101506.90
2023-07-08T03:40:26.866Z,101507.51
2023-07-08T03:45:34.567Z,101508.42
2023-07-08T03:50:44.124Z,101503.20
2023-07-08T03:55:51.887Z,101501.75
2023-07-08T04:00:59.809Z,101502.70
2023-07-08T04:06:07.896Z,101504.15
2023-07-08T04:11:18.312Z,101503.95
2023-07-08T04:16:29.454Z,101496.83
2023-07-08T04:21:37.740Z,101499.40
2023-07-08T04:26:47.508Z,101501.33
2023-07-08T04:31:55.277Z,101499.42
2023-07-08T04:37:05.546Z,101490.34
2023-07-08T04:42:14.254Z,101483.38
2023-07-08T04:47:22.349Z,101481.58
2023-07-08T04:52:30.429Z,101481.98
2023-07-08T04:57:38.397Z,101480.64
2023-07-08T05:02:46.195Z,101486.30
2023-07-08T05:07:54.537Z,101487.92
2023-07-08T05:13:04.163Z,101488.83
2023-07-08T05:18:11.943Z,101482.23
2023-07-08T05:23:19.728Z,101484.09
2023-07-08T05:28:28.161Z,101488.72
2023-07-08T05:33:35.959Z,101490.88
2023-07-08T05:38:43.760Z,101492.02
2023-07-08T05:43:51.688Z,101487.48
2023-07-08T05:49:01.811Z,101488.07
2023-07-08T05:54:10.513Z,101476.62
2023-07-08T05:59:18.532Z,101479.08
2023-07-08T06:04:26.336Z,101481.98
2023-07-08T06:09:34.311Z,101487.12
2023-07-08T06:14:42.175Z,101489.88
2023-07-08T06:19:49.996Z,101489.60
2023-07-08T06:24:57.687Z,101490.88
2023-07-08T06:30:06.748Z,101486.92
2023-07-08T06:35:14.953Z,101494.16
2023-07-08T06:40:22.936Z,101492.18
2023-07-08T06:45:31.044Z,101493.45
2023-07-08T06:50:39.840Z,101495.10
2023-07-08T06:55:49.704Z,101493.42
2023-07-08T07:00:58.163Z,101492.13
2023-07-08T07:06:06.133Z,101489.38
2023-07-08T07:11:14.146Z,101482.64
2023-07-08T07:16:22.247Z,101481.88
2023-07-08T07:21:31.440Z,101477.92
2023-07-08T07:26:39.186Z,101480.28
2023-07-08T07:31:49.057Z,101476.41
2023-07-08T07:36:58.229Z,101482.71
2023-07-08T07:42:06.915Z,101483.98
2023-07-08T07:47:15.499Z,101489.45
2023-07-08T07:52:25.394Z,101488.95
2023-07-08T07:57:33.443Z,101494.45
2023-07-08T08:02:41.208Z,101494.09
2023-07-08T08:07:50.225Z,101500.96
2023-07-08T08:13:00.220Z,101505.13
2023-07-08T08:18:07.995Z,101504.55
2023-07-08T08:23:15.910Z,101500.89
2023-07-08T08:28:23.647Z,101503.52
2023-07-08T08:33:31.428Z,101501.23
2023-07-08T08:38:39.150Z,101495.86
2023-07-08T08:43:49.661Z,101494.51
2023-07-08T08:49:04.568Z,101494.58
2023-07-08T08:54:12.402Z,101495.22
2023-07-08T08:59:27.084Z,101496.20
2023-07-08T09:04:39.256Z,101497.27
2023-07-08T09:09:52.792Z,101489.11
2023-07-08T09:15:01.420Z,101483.45
2023-07-08T09:20:22.505Z,101482.49
2023-07-08T09:25:34.487Z,101483.54
2023-07-08T09:30:42.679Z,101482.58
2023-07-08T09:35:51.127Z,101477.66
2023-07-08T09:40:59.055Z,101477.38
2023-07-08T09:46:07.360Z,101470.59
2023-07-08T09:51:17.842Z,101466.36
2023-07-08T09:56:27.718Z,101457.84
2023-07-08T10:01:36.804Z,101459.05
2023-07-08T10:06:49.353Z,101453.27
2023-07-08T10:12:02.321Z,101453.05
2023-07-08T10:17:17.969Z,101457.52
2023-07-08T10:22:36.515Z,101452.90
2023-07-08T10:27:56.317Z,101453.84
2023-07-08T10:33:19.360Z,101447.13
2023-07-08T10:38:41.650Z,101443.63
2023-07-08T10:44:01.908Z,101436.40
2023-07-08T10:49:31.113Z,101433.84
2023-07-08T10:54:58.887Z,101430.33
2023-07-08T11:00:22.145Z,101425.02
2023-07-08T11:05:37.971Z,101419.15
2023-07-08T11:10:59.742Z,101417.74
2023-07-08T11:16:23.926Z,101414.71
2023-07-08T11:21:38.117Z,101412.42
2023-07-08T11:26:51.097Z,101402.99
2023-07-08T11:31:59.976Z,101399.34
2023-07-08T11:37:09.973Z,101400.86
2023-07-08T11:42:27.209Z,101396.68
2023-07-08T11:47:42.040Z,101394.77
2023-07-08T11:52:57.947Z,101385.98
2023-07-08T11:58:10.637Z,101381.17
2023-07-08T12:03:31.209Z,101374.42
2023-07-08T12:08:41.953Z,101369.02
2023-07-08T12:13:49.757Z,101367.30
2023-07-08T12:18:59.942Z,101359.02
2023-07-08T12:24:09.603Z,101358.07
2023-07-08T12:29:17.915Z,101361.30
2023-07-08T12:34:27.945Z,101361.55
2023-07-08T12:39:37.523Z,101355.45
2023-07-08T12:44:45.558Z,101354.00
2023-07-08T12:49:54.825Z,101348.92
2023-07-08T12:55:02.919Z,101340.59
2023-07-08T13:00:17.084Z,101336.81
2023-07-08T13:05:26.189Z,101326.86
2023-07-08T13:10:38.102Z,101315.38
2023-07-08T13:15:46.814Z,101314.00
2023-07-08T13:20:56.504Z,101309.77
2023-07-08T13:26:14.326Z,101310.09
2023-07-08T13:31:25.557Z,101304.92
2023-07-08T13:36:37.117Z,101300.61
2023-07-08T13:41:47.227Z,101297.98
2023-07-08T13:47:00.021Z,101297.14
2023-07-08T13:52:19.715Z,101289.59
2023-07-08T13:57:34.556Z,101286.36
2023-07-08T14:02:47.102Z,101292.23
2023-07-08T14:07:55.333Z,101293.23
2023-07-08T14:13:03.595Z,101290.77
2023-07-08T14:18:14.269Z,101281.77
2023-07-08T14:23:22.159Z,101277.70
2023-07-08T14:28:30.005Z,101283.34
2023-07-08T14:33:38.551Z,101279.42
2023-07-08T14:38:47.236Z,101274.74
2023-07-08T14:43:56.610Z,101267.02
2023-07-08T14:49:11.265Z,101263.39
2023-07-08T14:54:19.616Z,101263.38
2023-07-08T14:59:30.990Z,101258.20
2023-07-08T15:04:39.293Z,101254.54
2023-07-08T15:09:48.511Z,101248.73
2023-07-08T15:14:57.286Z,101248.58
2023-07-08T15:20:16.074Z,101254.56
2023-07-08T15:25:24.730Z,101253.89
2023-07-08T15:30:33.805Z,101251.50
2023-07-08T15:35:42.096Z,101255.48
2023-07-08T15:40:52.442Z,101250.46
2023-07-08T15:46:03.609Z,101250.02
2023-07-08T15:51:15.312Z,101246.59
2023-07-08T15:56:24.912Z,101248.41
2023-07-08T16:01:33.930Z,101245.52
2023-07-08T16:06:42.606Z,101241.33
2023-07-08T16:11:51.723Z,101244.46
2023-07-08T16:17:00.704Z,101242.95
2023-07-08T16:22:10.745Z,101247.23
2023-07-08T16:27:19.079Z,101245.77
2023-07-08T16:32:28.737Z,101244.85
2023-07-08T16:37:37.086Z,101243.01
2023-07-08T16:42:57.120Z,101244.35
2023-07-08T16:48:05.570Z,101241.90
2023-07-08T16:53:15.608Z,101243.91
2023-07-08T16:58:23.898Z,101241.08
2023-07-08T17:03:33.960Z,101237.67
2023-07-08T17:08:42.423Z,101234.30
2023-07-08T17:13:50.862Z,101233.44
2023-07-08T17:19:00.576Z,101227.83
2023-07-08T17:24:14.566Z,101222.60
2023-07-08T17:29:26.041Z,101225.23
2023-07-08T17:34:37.495Z,101224.29
2023-07-08T17:39:46.248Z,101225.53
2023-07-08T17:44:54.976Z,101220.71
2023-07-08T17:50:03.359Z,101223.91
2023-07-08T17:55:12.614Z,101228.05
2023-07-08T18:00:31.764Z,101226.70
2023-07-08T18:05:40.173Z,101228.96
2023-07-08T18:10:48.902Z,101228.20
2023-07-08T18:15:57.758Z,101227.51
2023-07-08T18:21:13.867Z,101226.98
2023-07-08T18:26:24.100Z,101229.60
2023-07-08T18:31:36.334Z,101230.39
2023-07-08T18:36:45.364Z,101231.23
2023-07-08T18:41:53.697Z,101231.87
2023-07-08T18:47:05.225Z,101235.62
2023-07-08T18:52:14.171Z,101234.44
2023-07-08T18:57:22.621Z,101241.04
2023-07-08T19:02:38.676Z,101245.77
2023-07-08T19:07:47.642Z,101251.59
2023-07-08T19:12:56.150Z,101259.09
2023-07-08T19:18:05.690Z,101265.02
2023-07-08T19:23:18.375Z,101270.14
2023-07-08T19:28:26.787Z,101278.08
2023-07-08T19:33:38.003Z,101282.20
2023-07-08T19:38:46.656Z,101280.64
2023-07-08T19:43:56.123Z,101284.40
2023-07-08T19:49:04.789Z,101287.66
2023-07-08T19:54:13.456Z,101297.29
2023-07-08T19:59:22.154Z,101303.58
2023-07-08T20:04:32.245Z,101311.95
2023-07-08T20:09:42.162Z,101317.33
2023-07-08T20:14:50.922Z,101319.63
2023-07-08T20:19:59.532Z,101320.85
2023-07-08T20:25:10.377Z,101328.40
2023-07-08T20:30:24.936Z,101330.69
2023-07-08T20:35:35.878Z,101333.45
2023-07-08T20:40:44.356Z,101339.16
2023-07-08T20:45:56.106Z,101343.44
2023-07-08T20:51:05.379Z,101344.92
2023-07-08T20:56:19.635Z,101352.98
2023-07-08T21:01:32.021Z,101358.16
2023-07-08T21:06:40.791Z,101359.27
2023-07-08T21:11:49.220Z,101365.45
2023-07-08T21:16:58.077Z,101369.70
2023-07-08T21:22:07.213Z,101374.21
2023-07-08T21:27:24.532Z,101373.00
2023-07-08T21:32:33.017Z,101370.65
2023-07-08T21:37:51.988Z,101372.45
2023-07-08T21:43:00.551Z,101370.82
2023-07-08T21:48:11.735Z,101373.42
2023-07-08T21:53:22.968Z,101377.77
2023-07-08T21:58:32.146Z,101380.65
2023-07-08T22:03:40.590Z,101385.52
2023-07-08T22:08:49.367Z,101393.81
2023-07-08T22:13:59.057Z,101396.42
2023-07-08T22:19:07.578Z,101402.73
2023-07-08T22:24:16.450Z,101397.28
2023-07-08T22:29:24.814Z,101397.75
2023-07-08T22:34:33.161Z,101393.99
2023-07-08T22:39:41.977Z,101393.86
2023-07-08T22:44:50.277Z,101409.38
2023-07-08T22:49:59.285Z,101410.77
2023-07-08T22:55:15.843Z,101414.05
2023-07-08T23:00:26.498Z,101416.58
2023-07-08T23:05:36.894Z,101423.44
2023-07-08T23:10:46.134Z,101413.66
2023-07-08T23:15:54.914Z,101419.31
2023-07-08T23:21:04.002Z,101416.48
2023-07-08T23:26:16.666Z,101410.79
2023-07-08T23:31:26.029Z,101409.17
2023-07-08T23:36:37.235Z,101408.41
2023-07-08T23:41:45.754Z,101413.11
2023-07-08T23:46:56.623Z,101405.80
2023-07-08T23:52:05.593Z,101400.55
2023-07-08T23:57:18.190Z,101415.77
